Pine City, NY (14871)

4:20 PM EST on February 13, 2016 (GMT -0500)
Southside of Elmira NY | | Change Station
CLOSE
Current Station
Personal Weather Station
Location: Elmira, NY
Elevation: 876 ft
Nearby Weather Stations

Elev 876 ft 42.08 °N, 76.82 °W | Updated 26 seconds ago

Overcast
Overcast
5.7 °F
Feels Like 6 °F
N
2.7
Wind Variable Wind from ESE
Gusts 4.9 mph

Today
High -- | Low -- °F
--% Chance of Precip.
Yesterday
High -- | Low -- °F
Precip. -- in
Pressure 30.30 in
Visibility 10.0 miles
Clouds Overcast 4400 ft
Windchill 6 °F
Dew Point -7 °F
Humidity 56%
Rainfall 0.00 in
Snow Depth Not available.
7:06 AM 5:37 PM
Waxing Crescent, 34% visible
METAR KELM 132053Z AUTO 33008G16KT 10SM OVC044 M17/M25 A3024 RMK AO2 SLP261 T11671250 53010
Pressure 30.30 in
Visibility 10.0 miles
Clouds Overcast 4400 ft
Windchill 6 °F
Dew Point -7 °F
Humidity 56%
Rainfall 0.00 in
Snow Depth Not available.
7:06 AM 5:37 PM
Waxing Crescent, 34% visible
METAR KELM 132053Z AUTO 33008G16KT 10SM OVC044 M17/M25 A3024 RMK AO2 SLP261 T11671250 53010

10-Day Weather Forecast

Almanac

Astronomy

Feb. 13, 2016 Rise Set
Actual Time
Civil Twilight
Nautical Twilight
Astronomical Twilight
Moon
Length of Visible Light
Length of Day
Tomorrow will be .
, % of the Moon is Illuminated

Today's Extremes

State Highs State Lows

Community

WunderPhotos

Upload Photos

1,892,670 photos uploaded!

WunderBlog® & News

Nearby

Air Quality

  Air Quality AQ Index Pollutant
Not available.

Snow Depth

Station Depth Elevation

Earthquake Activity

City Distance Mag. Time & Date
Minimum magnitude displayed is 2.5.

Coastal Water Temperatures

Place Temperature

Stations

Nearby Weather Stations

Station Location Temp. Windchill Dew Point Humidity Wind Precip. Elev Updated Type
                   

Watches & Warnings

Wind Chill Warning
Issued: 2:29 PM EST Feb. 13, 2016 – National Weather Service

... Wind chill warning remains in effect until 1 PM EST Sunday...

* locations... the southern tier... Syracuse area and The Finger
lakes regions of New York.

* Hazard types... dangerously low wind chills and extreme cold.

* Timing... through Sunday morning.

* Impacts... potential for frostbite and hypothermia. The extreme
cold may also lead to pipes freezing.

* Wind chill readings... as low as 29 below.

* Winds... northwest 10 to 20 mph with gusts up to 35 mph.

* Temperatures... 10 below to 5 above zero.

Precautionary/preparedness actions...

A wind chill warning means the combination of very cold air and
strong winds will create dangerously low wind chill values. This
will result in frost bite and lead to hypothermia or death if
precautions are not taken.